sensor_id;sensor_type;location;lat;lon;timestamp;temperature;humidity
41471;DHT22;27211;51.220;5.308;2022-12-29T04:56:46;9.90;99.90
41471;DHT22;27211;51.220;5.308;2022-12-29T04:59:12;9.90;99.90
41471;DHT22;27211;51.220;5.308;2022-12-29T05:01:38;10.00;99.90
41471;DHT22;27211;51.220;5.308;2022-12-29T05:04:04;10.00;99.90
41471;DHT22;27211;51.220;5.308;2022-12-29T05:06:29;10.10;99.90
41471;DHT22;27211;51.220;5.308;2022-12-29T05:08:55;10.10;99.90
41471;DHT22;27211;51.220;5.308;2022-12-29T05:11:21;10.10;99.90
41471;DHT22;27211;51.220;5.308;2022-12-29T05:13:48;10.10;99.90
41471;DHT22;27211;51.220;5.308;2022-12-29T05:16:13;10.10;99.90
41471;DHT22;27211;51.220;5.308;2022-12-29T05:18:39;10.10;99.90
41471;DHT22;27211;51.220;5.308;2022-12-29T05:21:05;10.20;99.90
41471;DHT22;27211;51.220;5.308;2022-12-29T05:23:31;10.30;99.90
41471;DHT22;27211;51.220;5.308;2022-12-29T05:25:57;10.40;99.90
41471;DHT22;27211;51.220;5.308;2022-12-29T05:28:23;10.40;99.90
41471;DHT22;27211;51.220;5.308;2022-12-29T05:30:50;10.50;99.90
41471;DHT22;27211;51.220;5.308;2022-12-29T05:33:17;10.60;99.90
41471;DHT22;27211;51.220;5.308;2022-12-29T05:35:43;10.60;99.90
41471;DHT22;27211;51.220;5.308;2022-12-29T05:38:09;10.50;99.90
41471;DHT22;27211;51.220;5.308;2022-12-29T05:40:36;10.60;99.90
41471;DHT22;27211;51.220;5.308;2022-12-29T05:43:01;10.60;99.90
41471;DHT22;27211;51.220;5.308;2022-12-29T05:45:27;10.60;99.90
41471;DHT22;27211;51.220;5.308;2022-12-29T05:47:53;10.60;99.90
41471;DHT22;27211;51.220;5.308;2022-12-29T05:50:19;10.60;99.90
41471;DHT22;27211;51.220;5.308;2022-12-29T05:52:45;10.60;99.90
41471;DHT22;27211;51.220;5.308;2022-12-29T05:55:10;10.70;99.90
41471;DHT22;27211;51.220;5.308;2022-12-29T05:57:37;10.70;99.90
41471;DHT22;27211;51.220;5.308;2022-12-29T06:00:09;10.70;99.90
41471;DHT22;27211;51.220;5.308;2022-12-29T06:02:35;10.80;99.90
41471;DHT22;27211;51.220;5.308;2022-12-29T06:05:04;10.80;99.90
41471;DHT22;27211;51.220;5.308;2022-12-29T06:07:30;10.90;99.90
41471;DHT22;27211;51.220;5.308;2022-12-29T06:09:56;10.90;99.90
41471;DHT22;27211;51.220;5.308;2022-12-29T06:12:22;10.90;99.90
41471;DHT22;27211;51.220;5.308;2022-12-29T06:14:48;10.90;99.90
41471;DHT22;27211;51.220;5.308;2022-12-29T06:17:13;11.00;99.90
41471;DHT22;27211;51.220;5.308;2022-12-29T06:19:39;11.00;99.90
41471;DHT22;27211;51.220;5.308;2022-12-29T06:22:05;11.10;99.90
41471;DHT22;27211;51.220;5.308;2022-12-29T06:24:32;11.00;99.90
41471;DHT22;27211;51.220;5.308;2022-12-29T06:26:58;11.10;99.90
41471;DHT22;27211;51.220;5.308;2022-12-29T06:29:24;11.20;99.90
41471;DHT22;27211;51.220;5.308;2022-12-29T06:31:50;11.20;99.90
41471;DHT22;27211;51.220;5.308;2022-12-29T06:34:16;11.30;99.90
41471;DHT22;27211;51.220;5.308;2022-12-29T06:36:42;11.30;99.90
41471;DHT22;27211;51.220;5.308;2022-12-29T06:39:10;11.30;99.90
41471;DHT22;27211;51.220;5.308;2022-12-29T06:41:36;11.30;99.90
41471;DHT22;27211;51.220;5.308;2022-12-29T06:44:02;11.30;99.90
41471;DHT22;27211;51.220;5.308;2022-12-29T06:46:28;11.30;99.90
41471;DHT22;27211;51.220;5.308;2022-12-29T06:48:53;11.30;99.90
41471;DHT22;27211;51.220;5.308;2022-12-29T06:51:19;11.30;99.90
41471;DHT22;27211;51.220;5.308;2022-12-29T06:53:45;11.30;99.90
41471;DHT22;27211;51.220;5.308;2022-12-29T06:56:11;11.20;99.90
41471;DHT22;27211;51.220;5.308;2022-12-29T06:58:37;11.20;99.90
41471;DHT22;27211;51.220;5.308;2022-12-29T07:01:03;11.30;99.90
41471;DHT22;27211;51.220;5.308;2022-12-29T07:03:29;11.20;99.90
41471;DHT22;27211;51.220;5.308;2022-12-29T07:05:55;11.20;99.90
41471;DHT22;27211;51.220;5.308;2022-12-29T07:08:22;11.10;99.90
41471;DHT22;27211;51.220;5.308;2022-12-29T07:10:48;11.10;99.90
41471;DHT22;27211;51.220;5.308;2022-12-29T07:13:14;11.10;99.90
41471;DHT22;27211;51.220;5.308;2022-12-29T07:15:40;11.10;99.90
41471;DHT22;27211;51.220;5.308;2022-12-29T07:18:06;11.20;99.90
41471;DHT22;27211;51.220;5.308;2022-12-29T07:20:33;11.20;99.90
41471;DHT22;27211;51.220;5.308;2022-12-29T07:22:58;11.30;99.90
41471;DHT22;27211;51.220;5.308;2022-12-29T07:25:24;11.30;99.90
41471;DHT22;27211;51.220;5.308;2022-12-29T07:27:50;11.30;99.90
41471;DHT22;27211;51.220;5.308;2022-12-29T07:30:17;11.30;99.90
41471;DHT22;27211;51.220;5.308;2022-12-29T07:32:43;11.30;99.90
41471;DHT22;27211;51.220;5.308;2022-12-29T07:35:08;11.40;99.90
41471;DHT22;27211;51.220;5.308;2022-12-29T07:37:35;11.40;99.90
41471;DHT22;27211;51.220;5.308;2022-12-29T07:40:01;11.30;99.90
41471;DHT22;27211;51.220;5.308;2022-12-29T07:42:27;11.40;99.90
41471;DHT22;27211;51.220;5.308;2022-12-29T07:44:53;11.40;99.90
41471;DHT22;27211;51.220;5.308;2022-12-29T07:47:19;11.30;99.90
41471;DHT22;27211;51.220;5.308;2022-12-29T07:49:45;11.40;99.90
41471;DHT22;27211;51.220;5.308;2022-12-29T07:52:11;11.40;99.90
41471;DHT22;27211;51.220;5.308;2022-12-29T07:54:37;11.30;99.90
41471;DHT22;27211;51.220;5.308;2022-12-29T07:57:04;11.30;99.90
41471;DHT22;27211;51.220;5.308;2022-12-29T07:59:30;11.30;99.90
41471;DHT22;27211;51.220;5.308;2022-12-29T08:01:56;11.30;99.90
41471;DHT22;27211;51.220;5.308;2022-12-29T08:04:22;11.30;99.90
41471;DHT22;27211;51.220;5.308;2022-12-29T08:06:47;11.30;99.90
41471;DHT22;27211;51.220;5.308;2022-12-29T08:09:13;11.30;99.90
41471;DHT22;27211;51.220;5.308;2022-12-29T08:11:39;11.40;99.90
41471;DHT22;27211;51.220;5.308;2022-12-29T08:14:06;11.40;99.90
41471;DHT22;27211;51.220;5.308;2022-12-29T08:16:32;11.40;99.90
41471;DHT22;27211;51.220;5.308;2022-12-29T08:18:58;11.50;99.90
41471;DHT22;27211;51.220;5.308;2022-12-29T08:21:26;11.50;99.90
41471;DHT22;27211;51.220;5.308;2022-12-29T08:23:52;11.50;99.90
41471;DHT22;27211;51.220;5.308;2022-12-29T08:26:18;11.50;99.90
41471;DHT22;27211;51.220;5.308;2022-12-29T08:28:44;11.50;99.90
41471;DHT22;27211;51.220;5.308;2022-12-29T08:31:10;11.60;99.90
41471;DHT22;27211;51.220;5.308;2022-12-29T08:33:35;11.50;99.90
41471;DHT22;27211;51.220;5.308;2022-12-29T08:36:06;11.50;99.90
41471;DHT22;27211;51.220;5.308;2022-12-29T08:38:33;11.50;99.90
41471;DHT22;27211;51.220;5.308;2022-12-29T08:40:59;11.60;99.90
41471;DHT22;27211;51.220;5.308;2022-12-29T08:43:27;11.60;99.90
41471;DHT22;27211;51.220;5.308;2022-12-29T08:45:53;11.60;99.90
41471;DHT22;27211;51.220;5.308;2022-12-29T08:48:19;11.60;99.90
41471;DHT22;27211;51.220;5.308;2022-12-29T08:50:48;11.60;99.90
41471;DHT22;27211;51.220;5.308;2022-12-29T08:53:14;11.60;99.90
41471;DHT22;27211;51.220;5.308;2022-12-29T08:55:40;11.60;99.90
41471;DHT22;27211;51.220;5.308;2022-12-29T08:58:06;11.70;99.90
41471;DHT22;27211;51.220;5.308;2022-12-29T09:00:31;11.60;99.90
41471;DHT22;27211;51.220;5.308;2022-12-29T09:02:57;11.60;99.90
41471;DHT22;27211;51.220;5.308;2022-12-29T09:05:23;11.50;99.90
41471;DHT22;27211;51.220;5.308;2022-12-29T09:07:49;11.50;99.90
41471;DHT22;27211;51.220;5.308;2022-12-29T09:10:15;11.50;99.90
41471;DHT22;27211;51.220;5.308;2022-12-29T09:12:40;11.60;99.90
41471;DHT22;27211;51.220;5.308;2022-12-29T09:15:07;11.60;99.90
41471;DHT22;27211;51.220;5.308;2022-12-29T09:17:34;11.70;99.90
41471;DHT22;27211;51.220;5.308;2022-12-29T09:20:15;11.90;99.90
41471;DHT22;27211;51.220;5.308;2022-12-29T09:22:41;12.10;99.90
41471;DHT22;27211;51.220;5.308;2022-12-29T09:25:09;12.10;99.90
41471;DHT22;27211;51.220;5.308;2022-12-29T09:27:36;12.10;99.90
41471;DHT22;27211;51.220;5.308;2022-12-29T09:30:07;12.10;99.90
41471;DHT22;27211;51.220;5.308;2022-12-29T09:32:34;12.40;99.90
41471;DHT22;27211;51.220;5.308;2022-12-29T09:35:00;12.70;99.90
41471;DHT22;27211;51.220;5.308;2022-12-29T09:37:26;12.60;99.90
41471;DHT22;27211;51.220;5.308;2022-12-29T09:39:52;12.40;99.90
41471;DHT22;27211;51.220;5.308;2022-12-29T09:42:45;12.70;99.90
41471;DHT22;27211;51.220;5.308;2022-12-29T09:45:21;12.60;99.90
41471;DHT22;27211;51.220;5.308;2022-12-29T09:47:48;12.70;99.90
41471;DHT22;27211;51.220;5.308;2022-12-29T09:50:23;12.40;99.90
41471;DHT22;27211;51.220;5.308;2022-12-29T09:53:03;12.30;99.90
41471;DHT22;27211;51.220;5.308;2022-12-29T09:55:39;12.10;99.90
41471;DHT22;27211;51.220;5.308;2022-12-29T09:58:15;12.10;99.90
41471;DHT22;27211;51.220;5.308;2022-12-29T10:03:56;11.80;99.90
41471;DHT22;27211;51.220;5.308;2022-12-29T10:15:00;11.00;99.90
41471;DHT22;27211;51.220;5.308;2022-12-29T10:23:25;11.40;99.90
41471;DHT22;27211;51.220;5.308;2022-12-29T10:25:54;11.50;99.90
41471;DHT22;27211;51.220;5.308;2022-12-29T10:28:24;11.50;99.90
41471;DHT22;27211;51.220;5.308;2022-12-29T10:30:53;11.60;99.90
41471;DHT22;27211;51.220;5.308;2022-12-29T10:33:23;11.60;99.90
41471;DHT22;27211;51.220;5.308;2022-12-29T10:35:51;11.60;99.90
41471;DHT22;27211;51.220;5.308;2022-12-29T10:38:30;11.60;99.90
41471;DHT22;27211;51.220;5.308;2022-12-29T10:41:16;11.60;99.90
41471;DHT22;27211;51.220;5.308;2022-12-29T10:43:48;11.60;99.90
41471;DHT22;27211;51.220;5.308;2022-12-29T10:46:24;11.40;99.90
41471;DHT22;27211;51.220;5.308;2022-12-29T10:48:51;11.40;99.90
41471;DHT22;27211;51.220;5.308;2022-12-29T10:51:30;11.40;99.90
41471;DHT22;27211;51.220;5.308;2022-12-29T10:54:15;11.40;99.90
41471;DHT22;27211;51.220;5.308;2022-12-29T10:56:47;11.40;99.90
41471;DHT22;27211;51.220;5.308;2022-12-29T10:59:22;11.70;99.90
41471;DHT22;27211;51.220;5.308;2022-12-29T11:07:22;11.80;99.90
41471;DHT22;27211;51.220;5.308;2022-12-29T11:09:49;11.80;99.90
41471;DHT22;27211;51.220;5.308;2022-12-29T11:12:29;11.80;99.90
41471;DHT22;27211;51.220;5.308;2022-12-29T11:17:51;11.70;99.90
41471;DHT22;27211;51.220;5.308;2022-12-29T11:22:54;11.80;99.90
41471;DHT22;27211;51.220;5.308;2022-12-29T11:25:20;11.80;99.90
41471;DHT22;27211;51.220;5.308;2022-12-29T11:28:15;11.90;99.90
41471;DHT22;27211;51.220;5.308;2022-12-29T11:30:42;12.00;99.90
41471;DHT22;27211;51.220;5.308;2022-12-29T11:33:08;12.10;99.90
41471;DHT22;27211;51.220;5.308;2022-12-29T11:35:39;12.10;99.90
41471;DHT22;27211;51.220;5.308;2022-12-29T11:38:14;12.10;99.90
41471;DHT22;27211;51.220;5.308;2022-12-29T11:40:41;12.10;99.90
41471;DHT22;27211;51.220;5.308;2022-12-29T11:43:38;12.10;99.90
41471;DHT22;27211;51.220;5.308;2022-12-29T11:46:04;12.00;99.90
41471;DHT22;27211;51.220;5.308;2022-12-29T11:48:39;12.20;99.90
41471;DHT22;27211;51.220;5.308;2022-12-29T11:51:06;12.30;99.90
41471;DHT22;27211;51.220;5.308;2022-12-29T11:53:47;12.20;99.90
41471;DHT22;27211;51.220;5.308;2022-12-29T11:56:32;12.10;99.90
41471;DHT22;27211;51.220;5.308;2022-12-29T11:59:24;12.10;99.90
41471;DHT22;27211;51.220;5.308;2022-12-29T12:01:50;12.10;99.90
41471;DHT22;27211;51.220;5.308;2022-12-29T12:04:19;12.00;99.90
41471;DHT22;27211;51.220;5.308;2022-12-29T12:07:12;12.00;99.90
41471;DHT22;27211;51.220;5.308;2022-12-29T12:12:14;11.80;99.90
41471;DHT22;27211;51.220;5.308;2022-12-29T12:14:49;11.90;99.90
41471;DHT22;27211;51.220;5.308;2022-12-29T12:17:23;11.70;99.90
41471;DHT22;27211;51.220;5.308;2022-12-29T12:22:41;11.00;99.90
41471;DHT22;27211;51.220;5.308;2022-12-29T12:26:14;10.90;99.90
41471;DHT22;27211;51.220;5.308;2022-12-29T12:28:20;10.90;99.90
41471;DHT22;27211;51.220;5.308;2022-12-29T12:30:49;11.00;99.90
41471;DHT22;27211;51.220;5.308;2022-12-29T12:33:28;11.10;99.90
41471;DHT22;27211;51.220;5.308;2022-12-29T12:38:55;11.10;99.90
41471;DHT22;27211;51.220;5.308;2022-12-29T12:47:22;11.10;99.90
41471;DHT22;27211;51.220;5.308;2022-12-29T12:53:07;11.00;99.90
41471;DHT22;27211;51.220;5.308;2022-12-29T12:56:25;11.00;99.90
41471;DHT22;27211;51.220;5.308;2022-12-29T13:04:19;11.00;99.90
41471;DHT22;27211;51.220;5.308;2022-12-29T13:21:00;11.30;99.90
41471;DHT22;27211;51.220;5.308;2022-12-29T13:24:30;11.40;99.90
41471;DHT22;27211;51.220;5.308;2022-12-29T13:26:42;11.40;99.90
41471;DHT22;27211;51.220;5.308;2022-12-29T13:37:31;11.50;99.90
41471;DHT22;27211;51.220;5.308;2022-12-29T13:40:10;11.50;99.90
41471;DHT22;27211;51.220;5.308;2022-12-29T13:42:37;11.30;99.90
41471;DHT22;27211;51.220;5.308;2022-12-29T13:45:09;11.20;99.90
41471;DHT22;27211;51.220;5.308;2022-12-29T13:47:44;11.20;99.90
41471;DHT22;27211;51.220;5.308;2022-12-29T13:50:23;11.40;99.90
41471;DHT22;27211;51.220;5.308;2022-12-29T13:56:13;11.30;99.90
41471;DHT22;27211;51.220;5.308;2022-12-29T14:01:53;11.20;99.90
41471;DHT22;27211;51.220;5.308;2022-12-29T14:04:24;11.10;99.90
41471;DHT22;27211;51.220;5.308;2022-12-29T14:07:05;11.00;99.90
41471;DHT22;27211;51.220;5.308;2022-12-29T14:09:47;11.00;99.90
41471;DHT22;27211;51.220;5.308;2022-12-29T14:12:38;10.90;99.90
41471;DHT22;27211;51.220;5.308;2022-12-29T14:17:39;10.90;99.90
41471;DHT22;27211;51.220;5.308;2022-12-29T14:20:16;11.00;99.90
41471;DHT22;27211;51.220;5.308;2022-12-29T14:25:57;11.10;99.90
41471;DHT22;27211;51.220;5.308;2022-12-29T14:28:28;11.20;99.90
41471;DHT22;27211;51.220;5.308;2022-12-29T14:30:59;11.00;99.90
41471;DHT22;27211;51.220;5.308;2022-12-29T14:33:28;11.00;99.90
41471;DHT22;27211;51.220;5.308;2022-12-29T14:35:54;10.90;99.90
41471;DHT22;27211;51.220;5.308;2022-12-29T14:38:25;10.90;99.90
41471;DHT22;27211;51.220;5.308;2022-12-29T14:40:53;10.80;99.90
41471;DHT22;27211;51.220;5.308;2022-12-29T14:43:38;10.80;99.90
41471;DHT22;27211;51.220;5.308;2022-12-29T14:46:08;10.80;99.90
41471;DHT22;27211;51.220;5.308;2022-12-29T14:48:35;10.80;99.90
41471;DHT22;27211;51.220;5.308;2022-12-29T14:51:17;10.80;99.90
41471;DHT22;27211;51.220;5.308;2022-12-29T14:53:48;10.80;99.90
41471;DHT22;27211;51.220;5.308;2022-12-29T14:56:18;10.80;99.90
41471;DHT22;27211;51.220;5.308;2022-12-29T14:59:01;10.90;99.90
41471;DHT22;27211;51.220;5.308;2022-12-29T15:01:39;10.80;99.90
41471;DHT22;27211;51.220;5.308;2022-12-29T15:04:25;10.70;99.90
41471;DHT22;27211;51.220;5.308;2022-12-29T15:06:52;10.70;99.90
41471;DHT22;27211;51.220;5.308;2022-12-29T15:09:27;10.50;99.90
41471;DHT22;27211;51.220;5.308;2022-12-29T15:11:58;10.30;99.90
41471;DHT22;27211;51.220;5.308;2022-12-29T15:16:57;9.90;99.90
41471;DHT22;27211;51.220;5.308;2022-12-29T15:19:24;9.80;99.90
41471;DHT22;27211;51.220;5.308;2022-12-29T15:21:50;9.70;99.90
41471;DHT22;27211;51.220;5.308;2022-12-29T15:24:16;9.50;99.90
41471;DHT22;27211;51.220;5.308;2022-12-29T15:26:44;9.30;99.90
41471;DHT22;27211;51.220;5.308;2022-12-29T15:29:44;9.10;99.90
41471;DHT22;27211;51.220;5.308;2022-12-29T15:32:23;9.00;99.90
41471;DHT22;27211;51.220;5.308;2022-12-29T15:34:55;8.90;99.90
41471;DHT22;27211;51.220;5.308;2022-12-29T15:37:27;8.80;99.90
41471;DHT22;27211;51.220;5.308;2022-12-29T15:39:54;8.80;99.90
41471;DHT22;27211;51.220;5.308;2022-12-29T15:42:58;8.90;99.90
41471;DHT22;27211;51.220;5.308;2022-12-29T15:45:33;8.80;99.90
41471;DHT22;27211;51.220;5.308;2022-12-29T15:48:00;8.70;99.90
41471;DHT22;27211;51.220;5.308;2022-12-29T15:50:27;8.70;99.90
41471;DHT22;27211;51.220;5.308;2022-12-29T15:52:55;8.70;99.90
41471;DHT22;27211;51.220;5.308;2022-12-29T15:55:30;8.70;99.90
41471;DHT22;27211;51.220;5.308;2022-12-29T15:57:59;8.70;99.90
41471;DHT22;27211;51.220;5.308;2022-12-29T16:00:30;8.70;99.90
41471;DHT22;27211;51.220;5.308;2022-12-29T16:03:02;8.70;99.90
41471;DHT22;27211;51.220;5.308;2022-12-29T16:05:37;8.70;99.90
41471;DHT22;27211;51.220;5.308;2022-12-29T16:08:20;8.80;99.90
41471;DHT22;27211;51.220;5.308;2022-12-29T16:10:47;8.80;99.90
41471;DHT22;27211;51.220;5.308;2022-12-29T16:15:49;8.60;99.90
41471;DHT22;27211;51.220;5.308;2022-12-29T16:18:25;8.50;99.90
41471;DHT22;27211;51.220;5.308;2022-12-29T16:20:54;8.40;99.90
41471;DHT22;27211;51.220;5.308;2022-12-29T16:23:24;8.30;99.90
41471;DHT22;27211;51.220;5.308;2022-12-29T16:25:52;8.20;99.90
41471;DHT22;27211;51.220;5.308;2022-12-29T16:28:35;8.10;99.90
41471;DHT22;27211;51.220;5.308;2022-12-29T16:31:05;8.00;99.90
41471;DHT22;27211;51.220;5.308;2022-12-29T16:36:34;8.00;99.90
41471;DHT22;27211;51.220;5.308;2022-12-29T16:39:24;8.00;99.90
41471;DHT22;27211;51.220;5.308;2022-12-29T16:41:52;8.00;99.90
41471;DHT22;27211;51.220;5.308;2022-12-29T16:44:27;8.10;99.90
41471;DHT22;27211;51.220;5.308;2022-12-29T16:49:25;8.10;99.90
41471;DHT22;27211;51.220;5.308;2022-12-29T16:51:53;8.10;99.90
41471;DHT22;27211;51.220;5.308;2022-12-29T16:54:26;8.10;99.90
41471;DHT22;27211;51.220;5.308;2022-12-29T16:56:54;8.10;99.90
41471;DHT22;27211;51.220;5.308;2022-12-29T16:59:34;8.20;99.90
41471;DHT22;27211;51.220;5.308;2022-12-29T17:02:07;8.20;99.90
41471;DHT22;27211;51.220;5.308;2022-12-29T17:04:33;8.20;99.90
41471;DHT22;27211;51.220;5.308;2022-12-29T17:06:59;8.20;99.90
41471;DHT22;27211;51.220;5.308;2022-12-29T17:09:28;8.20;99.90
41471;DHT22;27211;51.220;5.308;2022-12-29T17:11:58;8.20;99.90
41471;DHT22;27211;51.220;5.308;2022-12-29T17:14:43;8.20;99.90
41471;DHT22;27211;51.220;5.308;2022-12-29T17:17:19;8.20;99.90
41471;DHT22;27211;51.220;5.308;2022-12-29T17:19:55;8.20;99.90
41471;DHT22;27211;51.220;5.308;2022-12-29T17:22:28;8.30;99.90
41471;DHT22;27211;51.220;5.308;2022-12-29T17:24:57;8.30;99.90
41471;DHT22;27211;51.220;5.308;2022-12-29T17:27:28;8.20;99.90
41471;DHT22;27211;51.220;5.308;2022-12-29T17:29:59;8.10;99.90
41471;DHT22;27211;51.220;5.308;2022-12-29T17:32:25;8.20;99.90
41471;DHT22;27211;51.220;5.308;2022-12-29T17:34:51;8.10;99.90
41471;DHT22;27211;51.220;5.308;2022-12-29T17:39:49;8.10;99.90
41471;DHT22;27211;51.220;5.308;2022-12-29T17:42:16;8.20;99.90
41471;DHT22;27211;51.220;5.308;2022-12-29T17:44:42;8.10;99.90
41471;DHT22;27211;51.220;5.308;2022-12-29T17:47:11;8.00;99.90
41471;DHT22;27211;51.220;5.308;2022-12-29T17:49:37;8.00;99.90
41471;DHT22;27211;51.220;5.308;2022-12-29T17:52:04;8.10;99.90
41471;DHT22;27211;51.220;5.308;2022-12-29T17:54:30;8.10;99.90
41471;DHT22;27211;51.220;5.308;2022-12-29T17:56:56;8.10;99.90
41471;DHT22;27211;51.220;5.308;2022-12-29T17:59:23;8.00;99.90
41471;DHT22;27211;51.220;5.308;2022-12-29T18:01:49;8.00;99.90
41471;DHT22;27211;51.220;5.308;2022-12-29T18:04:17;8.10;99.90
41471;DHT22;27211;51.220;5.308;2022-12-29T18:06:44;8.20;99.90
41471;DHT22;27211;51.220;5.308;2022-12-29T18:09:11;8.10;99.90
41471;DHT22;27211;51.220;5.308;2022-12-29T18:11:42;8.10;99.90
41471;DHT22;27211;51.220;5.308;2022-12-29T18:14:14;8.20;99.90
41471;DHT22;27211;51.220;5.308;2022-12-29T18:16:41;8.10;99.90
41471;DHT22;27211;51.220;5.308;2022-12-29T18:19:07;8.10;99.90
41471;DHT22;27211;51.220;5.308;2022-12-29T18:21:35;8.10;99.90
41471;DHT22;27211;51.220;5.308;2022-12-29T18:24:01;8.10;99.90
41471;DHT22;27211;51.220;5.308;2022-12-29T18:26:28;8.20;99.90
41471;DHT22;27211;51.220;5.308;2022-12-29T18:28:59;8.10;99.90
41471;DHT22;27211;51.220;5.308;2022-12-29T18:31:30;8.10;99.90
41471;DHT22;27211;51.220;5.308;2022-12-29T18:33:58;8.00;99.90
41471;DHT22;27211;51.220;5.308;2022-12-29T18:36:24;8.00;99.90
41471;DHT22;27211;51.220;5.308;2022-12-29T18:38:50;8.00;99.90
41471;DHT22;27211;51.220;5.308;2022-12-29T18:41:28;8.00;99.90
41471;DHT22;27211;51.220;5.308;2022-12-29T18:43:55;8.00;99.90
41471;DHT22;27211;51.220;5.308;2022-12-29T18:46:21;7.90;99.90
41471;DHT22;27211;51.220;5.308;2022-12-29T18:48:47;8.00;99.90
41471;DHT22;27211;51.220;5.308;2022-12-29T18:51:20;7.90;99.90
41471;DHT22;27211;51.220;5.308;2022-12-29T18:53:46;7.90;99.90
41471;DHT22;27211;51.220;5.308;2022-12-29T18:56:13;8.00;99.90
41471;DHT22;27211;51.220;5.308;2022-12-29T18:58:39;8.00;99.90
41471;DHT22;27211;51.220;5.308;2022-12-29T19:01:06;8.10;99.90
41471;DHT22;27211;51.220;5.308;2022-12-29T19:03:32;8.00;99.90
41471;DHT22;27211;51.220;5.308;2022-12-29T19:05:58;8.00;99.90
41471;DHT22;27211;51.220;5.308;2022-12-29T19:08:25;8.10;99.90
41471;DHT22;27211;51.220;5.308;2022-12-29T19:10:51;8.10;99.90
41471;DHT22;27211;51.220;5.308;2022-12-29T19:13:19;8.00;99.90
41471;DHT22;27211;51.220;5.308;2022-12-29T19:15:46;8.10;99.90
41471;DHT22;27211;51.220;5.308;2022-12-29T19:18:20;8.10;99.90
41471;DHT22;27211;51.220;5.308;2022-12-29T19:20:48;8.10;99.90
41471;DHT22;27211;51.220;5.308;2022-12-29T19:23:16;8.20;99.90
41471;DHT22;27211;51.220;5.308;2022-12-29T19:25:43;8.20;99.90
41471;DHT22;27211;51.220;5.308;2022-12-29T19:28:18;8.20;99.90
41471;DHT22;27211;51.220;5.308;2022-12-29T19:30:45;8.20;99.90
41471;DHT22;27211;51.220;5.308;2022-12-29T19:33:11;8.20;99.90
41471;DHT22;27211;51.220;5.308;2022-12-29T19:35:37;8.20;99.90
41471;DHT22;27211;51.220;5.308;2022-12-29T19:38:03;8.10;99.90
41471;DHT22;27211;51.220;5.308;2022-12-29T19:40:29;8.20;99.90
41471;DHT22;27211;51.220;5.308;2022-12-29T19:42:55;8.30;99.90
41471;DHT22;27211;51.220;5.308;2022-12-29T19:45:21;8.30;99.90
41471;DHT22;27211;51.220;5.308;2022-12-29T19:47:47;8.20;99.90
41471;DHT22;27211;51.220;5.308;2022-12-29T19:50:15;8.30;99.90
41471;DHT22;27211;51.220;5.308;2022-12-29T19:52:42;8.30;99.90
41471;DHT22;27211;51.220;5.308;2022-12-29T19:55:09;8.30;99.90
41471;DHT22;27211;51.220;5.308;2022-12-29T19:57:36;8.20;99.90
41471;DHT22;27211;51.220;5.308;2022-12-29T20:00:03;8.20;99.90
41471;DHT22;27211;51.220;5.308;2022-12-29T20:02:31;8.30;99.90
41471;DHT22;27211;51.220;5.308;2022-12-29T20:04:57;8.30;99.90
41471;DHT22;27211;51.220;5.308;2022-12-29T20:07:24;8.20;99.90
41471;DHT22;27211;51.220;5.308;2022-12-29T20:09:51;8.20;99.90
41471;DHT22;27211;51.220;5.308;2022-12-29T20:12:17;8.30;99.90
41471;DHT22;27211;51.220;5.308;2022-12-29T20:14:44;8.30;99.90
41471;DHT22;27211;51.220;5.308;2022-12-29T20:17:12;8.40;99.90
41471;DHT22;27211;51.220;5.308;2022-12-29T20:19:38;8.40;99.90
41471;DHT22;27211;51.220;5.308;2022-12-29T20:22:06;8.40;99.90
41471;DHT22;27211;51.220;5.308;2022-12-29T20:24:34;8.30;99.90
41471;DHT22;27211;51.220;5.308;2022-12-29T20:27:01;8.20;99.90
41471;DHT22;27211;51.220;5.308;2022-12-29T20:29:34;8.30;99.90
41471;DHT22;27211;51.220;5.308;2022-12-29T20:32:14;8.20;99.90
41471;DHT22;27211;51.220;5.308;2022-12-29T20:34:41;8.20;99.90
41471;DHT22;27211;51.220;5.308;2022-12-29T20:37:08;8.20;99.90
41471;DHT22;27211;51.220;5.308;2022-12-29T20:39:34;8.20;99.90
41471;DHT22;27211;51.220;5.308;2022-12-29T20:42:01;8.30;99.90
41471;DHT22;27211;51.220;5.308;2022-12-29T20:44:28;8.20;99.90
41471;DHT22;27211;51.220;5.308;2022-12-29T20:46:55;8.30;99.90
41471;DHT22;27211;51.220;5.308;2022-12-29T20:49:21;8.20;99.90
41471;DHT22;27211;51.220;5.308;2022-12-29T20:51:47;8.20;99.90
41471;DHT22;27211;51.220;5.308;2022-12-29T20:54:14;8.20;99.90
41471;DHT22;27211;51.220;5.308;2022-12-29T20:56:40;8.30;99.90
41471;DHT22;27211;51.220;5.308;2022-12-29T20:59:06;8.20;99.90
41471;DHT22;27211;51.220;5.308;2022-12-29T21:01:32;8.20;99.90
41471;DHT22;27211;51.220;5.308;2022-12-29T21:03:58;8.20;99.90
41471;DHT22;27211;51.220;5.308;2022-12-29T21:06:24;8.20;99.90
41471;DHT22;27211;51.220;5.308;2022-12-29T21:08:51;8.10;99.90
41471;DHT22;27211;51.220;5.308;2022-12-29T21:11:18;8.20;99.90
41471;DHT22;27211;51.220;5.308;2022-12-29T21:13:46;8.20;99.90
41471;DHT22;27211;51.220;5.308;2022-12-29T21:16:13;8.20;99.90
41471;DHT22;27211;51.220;5.308;2022-12-29T21:18:40;8.20;99.90
41471;DHT22;27211;51.220;5.308;2022-12-29T21:21:17;8.10;99.90
41471;DHT22;27211;51.220;5.308;2022-12-29T21:23:43;8.10;99.90
41471;DHT22;27211;51.220;5.308;2022-12-29T21:26:11;8.00;99.90
41471;DHT22;27211;51.220;5.308;2022-12-29T21:28:38;8.00;99.90
41471;DHT22;27211;51.220;5.308;2022-12-29T21:31:09;8.10;99.90
41471;DHT22;27211;51.220;5.308;2022-12-29T21:33:35;8.00;99.90
41471;DHT22;27211;51.220;5.308;2022-12-29T21:36:07;8.00;99.90
41471;DHT22;27211;51.220;5.308;2022-12-29T21:38:36;7.90;99.90
41471;DHT22;27211;51.220;5.308;2022-12-29T21:41:11;8.00;99.90
41471;DHT22;27211;51.220;5.308;2022-12-29T21:43:37;8.00;99.90
41471;DHT22;27211;51.220;5.308;2022-12-29T21:46:04;8.00;99.90
41471;DHT22;27211;51.220;5.308;2022-12-29T21:48:31;7.90;99.90
41471;DHT22;27211;51.220;5.308;2022-12-29T21:51:08;7.90;99.90
41471;DHT22;27211;51.220;5.308;2022-12-29T21:53:58;7.80;99.90
41471;DHT22;27211;51.220;5.308;2022-12-29T21:56:44;7.90;99.90
41471;DHT22;27211;51.220;5.308;2022-12-29T21:59:12;7.90;99.90
41471;DHT22;27211;51.220;5.308;2022-12-29T22:01:57;7.90;99.90
41471;DHT22;27211;51.220;5.308;2022-12-29T22:04:41;7.80;99.90
41471;DHT22;27211;51.220;5.308;2022-12-29T22:07:25;7.80;99.90
41471;DHT22;27211;51.220;5.308;2022-12-29T22:10:11;7.90;99.90
41471;DHT22;27211;51.220;5.308;2022-12-29T22:12:55;8.00;99.90
41471;DHT22;27211;51.220;5.308;2022-12-29T22:15:33;7.90;99.90
41471;DHT22;27211;51.220;5.308;2022-12-29T22:18:00;7.90;99.90
41471;DHT22;27211;51.220;5.308;2022-12-29T22:20:29;7.90;99.90
41471;DHT22;27211;51.220;5.308;2022-12-29T22:22:55;7.90;99.90
41471;DHT22;27211;51.220;5.308;2022-12-29T22:25:22;7.90;99.90
41471;DHT22;27211;51.220;5.308;2022-12-29T22:27:48;7.90;99.90
41471;DHT22;27211;51.220;5.308;2022-12-29T22:30:15;7.90;99.90